Time;durP1;ratioP1;P1;durP2;ratioP2;P2;SDS_P1;SDS_P2;PMS_P1;PMS_P2;Temp;Humidity;BMP_temperature;BMP_pressure;BME280_temperature;BME280_humidity;BME280_pressure;Samples;Min_cycle;Max_cycle;Signal;HPM_P1;HPM_P2
2022/08/09 00:00:07;;;;;;;3.67;2.38;;;18.70;99.90;;;;;;6145329;23;20006;-72
2022/08/09 00:02:33;;;;;;;2.47;2.28;;;18.70;99.90;;;;;;6119396;23;20040;-72
2022/08/09 00:04:59;;;;;;;2.17;2.03;;;18.80;99.90;;;;;;6144523;23;20002;-73
2022/08/09 00:07:24;;;;;;;2.78;2.28;;;18.80;99.90;;;;;;6146425;23;20048;-72
2022/08/09 00:09:50;;;;;;;2.58;2.38;;;18.80;99.90;;;;;;6145818;23;20014;-72
2022/08/09 00:12:16;;;;;;;4.97;2.80;;;18.80;99.90;;;;;;6144033;23;20045;-72
2022/08/09 00:14:41;;;;;;;2.80;2.60;;;18.70;99.90;;;;;;6119668;23;20060;-74
2022/08/09 00:17:07;;;;;;;6.15;2.53;;;18.70;99.90;;;;;;6144473;23;20058;-71
2022/08/09 00:19:33;;;;;;;6.43;2.40;;;18.80;99.90;;;;;;6146390;23;20005;-70
2022/08/09 00:21:58;;;;;;;2.40;2.20;;;18.80;99.90;;;;;;6145434;23;20013;-72
2022/08/09 00:24:25;;;;;;;5.95;2.80;;;18.80;99.90;;;;;;6144600;23;19997;-72
2022/08/09 00:26:51;;;;;;;3.20;2.30;;;18.80;99.90;;;;;;6145991;23;20033;-72
2022/08/09 00:29:16;;;;;;;3.53;2.30;;;18.80;99.90;;;;;;6146157;23;20518;-73
2022/08/09 00:31:42;;;;;;;4.72;2.30;;;18.90;99.90;;;;;;6146139;23;20416;-73
2022/08/09 00:34:08;;;;;;;2.75;2.20;;;18.80;99.90;;;;;;6147082;23;20005;-73
2022/08/09 00:36:34;;;;;;;2.45;2.25;;;18.80;99.90;;;;;;6146117;23;20020;-73
2022/08/09 00:39:00;;;;;;;3.42;2.13;;;18.80;99.90;;;;;;6145881;23;20012;-73
2022/08/09 00:41:26;;;;;;;4.22;2.15;;;18.80;99.90;;;;;;6145732;23;20018;-73
2022/08/09 00:43:51;;;;;;;2.42;2.20;;;18.80;99.90;;;;;;6145690;23;20419;-73
2022/08/09 00:46:17;;;;;;;4.55;2.42;;;18.80;99.90;;;;;;6145800;23;20420;-73
2022/08/09 00:48:44;;;;;;;2.42;2.22;;;18.80;99.90;;;;;;6144541;23;20012;-73
2022/08/09 00:51:10;;;;;;;2.58;2.38;;;18.80;99.90;;;;;;6147310;23;20005;-73
2022/08/09 00:53:37;;;;;;;3.78;2.75;;;18.80;99.90;;;;;;6146648;23;20016;-73
2022/08/09 00:56:07;;;;;;;3.30;2.78;;;18.80;99.90;;;;;;6146428;23;20052;-73
2022/08/09 00:58:36;;;;;;;2.97;2.47;;;18.80;99.90;;;;;;6146018;23;20087;-73
2022/08/09 01:01:10;;;;;;;3.17;2.83;;;18.90;99.90;;;;;;6146791;23;20001;-73
2022/08/09 01:03:47;;;;;;;3.38;2.67;;;19.00;99.90;;;;;;6146207;23;20443;-73
2022/08/09 01:06:37;;;;;;;4.45;2.80;;;19.00;99.90;;;;;;6145622;23;20009;-73
2022/08/09 01:09:08;;;;;;;3.08;2.78;;;19.00;99.90;;;;;;6145699;23;20005;-73
2022/08/09 01:11:51;;;;;;;4.50;2.70;;;19.00;99.90;;;;;;6119071;23;20021;-73
2022/08/09 01:14:33;;;;;;;2.85;2.65;;;19.10;99.90;;;;;;6144229;23;20032;-73
2022/08/09 01:17:24;;;;;;;3.92;2.63;;;19.10;99.90;;;;;;6118498;23;20021;-73
2022/08/09 01:20:01;;;;;;;4.20;2.90;;;19.10;99.90;;;;;;6143325;23;20006;-73
2022/08/09 01:23:04;;;;;;;4.28;2.45;;;19.10;99.90;;;;;;6144948;23;20065;-73
2022/08/09 01:25:48;;;;;;;4.47;2.60;;;19.10;99.90;;;;;;6144599;23;20004;-73
2022/08/09 01:28:14;;;;;;;4.38;2.80;;;19.10;99.90;;;;;;6142129;23;20048;-73
2022/08/09 01:30:42;;;;;;;3.95;2.92;;;19.10;99.90;;;;;;6144573;23;20080;-73
2022/08/09 01:33:08;;;;;;;3.58;2.70;;;19.20;99.90;;;;;;6145524;23;20013;-73
2022/08/09 01:35:44;;;;;;;2.80;2.60;;;19.20;99.90;;;;;;6145948;23;20005;-73
2022/08/09 01:38:15;;;;;;;5.55;2.72;;;19.10;99.90;;;;;;6142613;23;20017;-73
2022/08/09 01:40:45;;;;;;;2.78;2.58;;;19.10;99.90;;;;;;6144483;23;20031;-73
2022/08/09 01:43:12;;;;;;;3.47;3.17;;;19.10;99.90;;;;;;6145738;23;20005;-73
2022/08/09 01:45:39;;;;;;;3.15;2.80;;;19.10;99.90;;;;;;6144404;23;20024;-73
2022/08/09 01:48:07;;;;;;;4.43;2.65;;;19.10;99.90;;;;;;6144069;23;20044;-73
2022/08/09 01:50:34;;;;;;;3.17;2.97;;;19.10;99.90;;;;;;6145768;23;19997;-73
2022/08/09 01:53:01;;;;;;;3.10;2.90;;;19.10;99.90;;;;;;6145976;23;20065;-73
2022/08/09 01:55:30;;;;;;;3.33;2.92;;;19.10;99.90;;;;;;6144316;23;20416;-73
2022/08/09 01:57:58;;;;;;;3.00;2.80;;;19.00;99.90;;;;;;6137323;23;20005;-73
2022/08/09 02:00:25;;;;;;;4.88;2.50;;;19.00;99.90;;;;;;6144804;23;20010;-73
2022/08/09 02:02:52;;;;;;;3.03;2.60;;;19.00;99.90;;;;;;6143386;23;20012;-73
2022/08/09 02:05:20;;;;;;;2.75;2.55;;;19.00;99.90;;;;;;6143922;23;20258;-73
2022/08/09 02:08:05;;;;;;;3.95;2.55;;;19.00;99.90;;;;;;6144060;23;20052;-73
2022/08/09 02:10:35;;;;;;;3.78;2.90;;;19.00;99.90;;;;;;6115991;23;20508;-73
2022/08/09 02:13:05;;;;;;;4.28;3.15;;;19.00;99.90;;;;;;6142647;23;20575;-73
2022/08/09 02:15:36;;;;;;;3.22;3.00;;;18.90;99.90;;;;;;6143148;23;20001;-73
2022/08/09 02:18:03;;;;;;;3.20;2.90;;;18.80;99.90;;;;;;6143995;23;19998;-73
2022/08/09 02:20:31;;;;;;;3.63;2.60;;;18.80;99.90;;;;;;6144472;23;20005;-73
2022/08/09 02:23:08;;;;;;;2.40;2.20;;;18.80;99.90;;;;;;6116215;23;20009;-73
2022/08/09 02:25:38;;;;;;;3.08;2.85;;;18.80;99.90;;;;;;6145078;23;20152;-73
2022/08/09 02:28:11;;;;;;;4.25;3.00;;;18.80;99.90;;;;;;6143564;23;20451;-73
2022/08/09 02:30:40;;;;;;;4.60;2.90;;;18.80;99.90;;;;;;6117414;23;20002;-73
2022/08/09 02:33:09;;;;;;;3.50;3.20;;;18.80;99.90;;;;;;6143668;23;20009;-73
2022/08/09 02:35:36;;;;;;;3.28;2.90;;;18.80;99.90;;;;;;6144664;23;20001;-73
2022/08/09 02:38:03;;;;;;;3.63;3.13;;;18.70;99.90;;;;;;6144351;23;20001;-73
2022/08/09 02:40:31;;;;;;;4.13;2.72;;;18.70;99.90;;;;;;6143649;23;20016;-73
2022/08/09 02:43:00;;;;;;;4.05;3.20;;;18.60;99.90;;;;;;6144272;23;20009;-73
2022/08/09 02:45:31;;;;;;;4.00;3.05;;;18.60;99.90;;;;;;6146556;23;20089;-73
2022/08/09 02:48:04;;;;;;;3.15;2.85;;;18.50;99.90;;;;;;6145365;23;20085;-73
2022/08/09 02:50:41;;;;;;;3.33;3.08;;;18.50;99.90;;;;;;6144790;23;19997;-73
2022/08/09 02:53:37;;;;;;;3.42;2.90;;;18.50;99.90;;;;;;6145406;23;20424;-72
2022/08/09 02:56:05;;;;;;;4.32;2.70;;;18.40;99.90;;;;;;6145331;23;20002;-72
2022/08/09 02:58:32;;;;;;;3.17;2.78;;;18.40;99.90;;;;;;6145222;23;20198;-72
2022/08/09 03:00:59;;;;;;;4.68;2.90;;;18.40;99.90;;;;;;6144922;23;20086;-72
2022/08/09 03:03:26;;;;;;;7.32;6.57;;;18.40;99.90;;;;;;6145054;23;20320;-72
2022/08/09 03:05:55;;;;;;;4.45;3.80;;;18.40;99.90;;;;;;6145435;23;20087;-72
2022/08/09 03:08:22;;;;;;;3.97;3.22;;;18.30;99.90;;;;;;6145961;23;20037;-72
2022/08/09 03:10:49;;;;;;;3.13;2.80;;;18.30;99.90;;;;;;6145942;23;20017;-72
2022/08/09 03:13:16;;;;;;;4.32;2.88;;;18.30;99.90;;;;;;6143809;23;20328;-73
2022/08/09 03:15:43;;;;;;;3.25;2.75;;;18.30;99.90;;;;;;6147776;23;20004;-73
2022/08/09 03:18:10;;;;;;;3.72;2.90;;;18.20;99.90;;;;;;6147197;23;20010;-72
2022/08/09 03:20:37;;;;;;;3.25;2.90;;;18.30;99.90;;;;;;6147510;23;20012;-73
2022/08/09 03:23:04;;;;;;;3.38;3.05;;;18.20;99.90;;;;;;6147662;23;20037;-72
2022/08/09 03:25:31;;;;;;;6.65;3.00;;;18.20;99.90;;;;;;6147280;23;20014;-74
2022/08/09 03:27:58;;;;;;;5.95;3.03;;;18.20;99.90;;;;;;6119662;23;20017;-72
2022/08/09 03:30:24;;;;;;;2.85;2.55;;;18.10;99.90;;;;;;6147507;23;20008;-72
2022/08/09 03:32:53;;;;;;;5.45;3.25;;;18.10;99.90;;;;;;6147802;23;20320;-72
2022/08/09 03:35:19;;;;;;;3.60;3.10;;;18.00;99.90;;;;;;6147050;23;20004;-72
2022/08/09 03:37:44;;;;;;;4.03;2.83;;;17.90;99.90;;;;;;6148215;23;20002;-72
2022/08/09 03:40:11;;;;;;;4.43;3.35;;;17.80;99.90;;;;;;6147763;23;20881;-72
2022/08/09 03:42:36;;;;;;;5.70;2.70;;;17.80;99.90;;;;;;6146837;23;20077;-73
2022/08/09 03:45:03;;;;;;;3.50;3.20;;;17.80;99.90;;;;;;6146553;23;20037;-73
2022/08/09 03:47:29;;;;;;;8.55;3.17;;;17.70;99.90;;;;;;6147255;23;20021;-73
2022/08/09 03:49:56;;;;;;;3.72;3.28;;;17.70;99.90;;;;;;6148007;23;20694;-73
2022/08/09 03:52:25;;;;;;;4.15;3.40;;;17.80;99.90;;;;;;6147384;23;20478;-73
2022/08/09 03:54:53;;;;;;;4.80;3.20;;;17.70;99.90;;;;;;6147501;23;20033;-73
2022/08/09 03:57:19;;;;;;;2.78;2.55;;;17.70;99.90;;;;;;6146211;23;20343;-73
2022/08/09 03:59:45;;;;;;;4.60;2.88;;;17.70;99.90;;;;;;6147822;23;20006;-73
2022/08/09 04:02:10;;;;;;;3.10;2.78;;;17.70;99.90;;;;;;6146459;23;20077;-73
2022/08/09 04:04:36;;;;;;;3.75;2.50;;;17.70;99.90;;;;;;6146568;23;20008;-73
2022/08/09 04:07:03;;;;;;;2.35;2.22;;;17.70;99.90;;;;;;6146260;23;20010;-73
2022/08/09 04:09:29;;;;;;;3.08;2.50;;;17.70;99.90;;;;;;6148454;23;20029;-73
2022/08/09 04:12:10;;;;;;;3.50;2.47;;;17.80;99.90;;;;;;6146090;23;20123;-73
2022/08/09 04:14:39;;;;;;;2.65;2.35;;;17.80;99.90;;;;;;6143351;23;20044;-72
2022/08/09 04:17:06;;;;;;;4.22;2.65;;;17.70;99.90;;;;;;6144968;23;20084;-73
2022/08/09 04:19:32;;;;;;;4.57;2.88;;;17.70;99.90;;;;;;6147601;23;20057;-73
2022/08/09 04:21:58;;;;;;;3.53;3.22;;;17.60;99.90;;;;;;6146855;23;20009;-72
2022/08/09 04:24:24;;;;;;;4.03;3.15;;;17.70;99.90;;;;;;6148268;23;20002;-72
2022/08/09 04:26:50;;;;;;;6.78;3.10;;;17.70;99.90;;;;;;6147999;23;20093;-74
2022/08/09 04:29:16;;;;;;;3.80;3.42;;;17.80;99.90;;;;;;6145382;23;20435;-74
2022/08/09 04:31:41;;;;;;;6.03;3.22;;;17.80;99.90;;;;;;6145947;23;20076;-74
2022/08/09 04:34:07;;;;;;;5.95;4.20;;;17.90;99.90;;;;;;6146010;23;20048;-74
2022/08/09 04:36:33;;;;;;;6.03;3.83;;;17.90;99.90;;;;;;6147822;23;20012;-74
2022/08/09 04:39:01;;;;;;;4.20;3.25;;;18.00;99.90;;;;;;6146823;23;19997;-74
2022/08/09 04:41:28;;;;;;;6.28;3.50;;;18.10;99.90;;;;;;6146735;23;20006;-73
2022/08/09 04:43:54;;;;;;;4.65;3.47;;;18.20;99.90;;;;;;6146402;23;20059;-74
2022/08/09 04:46:20;;;;;;;5.57;3.13;;;18.20;99.90;;;;;;6144429;23;20080;-74
2022/08/09 04:48:46;;;;;;;5.20;3.70;;;18.30;99.90;;;;;;6146617;23;20052;-74
2022/08/09 04:51:12;;;;;;;4.75;3.67;;;18.30;99.90;;;;;;6146780;23;20009;-73
2022/08/09 04:53:38;;;;;;;4.07;3.47;;;18.40;99.90;;;;;;6146328;23;20015;-74
2022/08/09 04:56:04;;;;;;;3.95;3.65;;;18.50;99.90;;;;;;6147109;23;20008;-73
2022/08/09 04:58:30;;;;;;;4.10;3.75;;;18.60;99.90;;;;;;6146893;23;20013;-73
2022/08/09 05:00:55;;;;;;;4.22;3.38;;;18.70;99.90;;;;;;6147626;23;20010;-73
2022/08/09 05:03:22;;;;;;;5.20;4.22;;;18.80;99.90;;;;;;6145565;23;20088;-73
2022/08/09 05:05:48;;;;;;;4.53;3.72;;;18.90;99.90;;;;;;6146600;23;20006;-73
2022/08/09 05:08:14;;;;;;;12.32;4.50;;;19.00;99.90;;;;;;6146324;23;20088;-73
2022/08/09 05:10:39;;;;;;;11.45;4.10;;;19.10;99.90;;;;;;6147062;23;20048;-73
2022/08/09 05:13:05;;;;;;;3.90;3.60;;;19.20;99.90;;;;;;6145273;23;20005;-73
2022/08/09 05:15:31;;;;;;;4.32;3.60;;;19.40;99.90;;;;;;6147183;23;20010;-73
2022/08/09 05:17:57;;;;;;;6.20;3.70;;;19.50;99.90;;;;;;6145608;23;20423;-74
2022/08/09 05:20:24;;;;;;;9.82;3.67;;;19.60;99.90;;;;;;6145354;23;20427;-72
2022/08/09 05:22:52;;;;;;;4.60;3.47;;;19.70;99.90;;;;;;6147398;23;20487;-73
2022/08/09 05:25:18;;;;;;;5.30;3.42;;;19.90;99.90;;;;;;6146934;23;20064;-73
2022/08/09 05:27:44;;;;;;;5.50;3.25;;;20.00;99.90;;;;;;6145891;23;20080;-73
2022/08/09 05:30:11;;;;;;;4.60;3.45;;;20.10;99.90;;;;;;6147028;23;20040;-72
2022/08/09 05:32:36;;;;;;;7.18;3.80;;;20.10;99.90;;;;;;6145646;23;20009;-73
2022/08/09 05:35:02;;;;;;;5.40;3.35;;;20.30;99.90;;;;;;6146718;23;20375;-73
2022/08/09 05:37:28;;;;;;;3.33;3.03;;;20.40;99.90;;;;;;6146416;23;20017;-73
2022/08/09 05:39:53;;;;;;;3.30;3.00;;;20.50;99.90;;;;;;6147043;23;20503;-73
2022/08/09 05:42:19;;;;;;;3.55;3.10;;;20.50;99.90;;;;;;6145642;23;20005;-73
2022/08/09 05:44:45;;;;;;;3.78;2.95;;;20.60;99.90;;;;;;6120694;23;20353;-73
2022/08/09 05:47:10;;;;;;;6.65;3.40;;;20.70;99.90;;;;;;6145361;23;20028;-73
2022/08/09 05:49:36;;;;;;;4.10;2.90;;;20.80;99.90;;;;;;6144375;23;20008;-74
2022/08/09 05:52:02;;;;;;;3.58;2.65;;;21.00;99.90;;;;;;6145704;23;20009;-74
2022/08/09 05:54:28;;;;;;;3.92;2.85;;;21.10;99.90;;;;;;6147079;23;20084;-73
2022/08/09 05:56:53;;;;;;;7.05;3.20;;;21.10;99.90;;;;;;6146078;23;20041;-72
2022/08/09 05:59:20;;;;;;;4.55;2.72;;;21.30;99.90;;;;;;6145561;23;20080;-72
2022/08/09 06:01:46;;;;;;;3.40;2.58;;;21.40;99.90;;;;;;6145398;23;20101;-72
2022/08/09 06:04:12;;;;;;;4.70;2.95;;;21.50;99.90;;;;;;6146813;23;20037;-75
2022/08/09 06:06:37;;;;;;;5.68;3.20;;;21.50;99.90;;;;;;6145289;23;20339;-74
2022/08/09 06:09:03;;;;;;;7.03;3.08;;;21.60;99.90;;;;;;6120262;23;20001;-74
2022/08/09 06:11:29;;;;;;;3.92;2.85;;;21.60;99.90;;;;;;6141954;23;20025;-75
2022/08/09 06:13:55;;;;;;;6.38;3.47;;;21.80;99.90;;;;;;6144480;23;20002;-73
2022/08/09 06:16:22;;;;;;;5.80;2.97;;;21.90;99.90;;;;;;6145437;23;20048;-73
2022/08/09 06:18:48;;;;;;;5.00;2.55;;;22.00;99.90;;;;;;6145579;23;20088;-74
2022/08/09 06:21:14;;;;;;;4.28;2.85;;;22.10;99.90;;;;;;6145697;23;20103;-73
2022/08/09 06:23:39;;;;;;;3.22;2.53;;;22.10;99.90;;;;;;6145455;23;20005;-74
2022/08/09 06:26:06;;;;;;;4.90;2.92;;;22.20;99.90;;;;;;6144466;23;19997;-73
2022/08/09 06:28:31;;;;;;;3.65;2.85;;;22.30;99.90;;;;;;6144358;23;20375;-73
2022/08/09 06:30:57;;;;;;;4.82;2.70;;;22.40;99.90;;;;;;6144154;23;20001;-72
2022/08/09 06:33:23;;;;;;;4.00;3.22;;;22.40;99.90;;;;;;6146437;23;20056;-72
2022/08/09 06:35:49;;;;;;;5.20;2.92;;;22.40;99.90;;;;;;6146176;23;20493;-72
2022/08/09 06:38:14;;;;;;;7.28;3.13;;;22.40;99.90;;;;;;6144658;23;20005;-73
2022/08/09 06:40:40;;;;;;;3.50;2.88;;;22.50;99.90;;;;;;6145239;23;20044;-73
2022/08/09 06:43:06;;;;;;;6.22;2.53;;;22.60;99.90;;;;;;6145225;23;20012;-73
2022/08/09 06:45:31;;;;;;;3.97;2.70;;;22.70;99.90;;;;;;6144538;23;20032;-73
2022/08/09 06:47:57;;;;;;;3.92;2.63;;;22.90;99.90;;;;;;6134842;23;20029;-72
2022/08/09 06:50:23;;;;;;;3.65;2.90;;;23.00;99.90;;;;;;6143746;23;20025;-73
2022/08/09 06:52:48;;;;;;;4.38;2.63;;;23.10;99.90;;;;;;6144935;23;20335;-71
2022/08/09 06:55:16;;;;;;;7.90;2.90;;;23.10;99.90;;;;;;6144621;23;20029;-73
2022/08/09 06:57:41;;;;;;;5.18;3.00;;;23.10;99.90;;;;;;6144078;23;20009;-73
2022/08/09 07:00:08;;;;;;;4.00;2.47;;;23.10;99.90;;;;;;6145580;23;20001;-77
2022/08/09 07:02:34;;;;;;;6.82;2.72;;;23.10;99.90;;;;;;6145315;23;20376;-73
2022/08/09 07:05:00;;;;;;;3.58;2.70;;;23.20;99.90;;;;;;6134716;23;20002;-73
2022/08/09 07:07:26;;;;;;;4.53;3.00;;;23.20;99.90;;;;;;6119789;23;20017;-73
2022/08/09 07:09:52;;;;;;;4.25;3.75;;;23.30;99.90;;;;;;6142753;23;20061;-73
2022/08/09 07:12:18;;;;;;;3.78;2.75;;;23.40;99.90;;;;;;6143766;23;20027;-74
2022/08/09 07:14:47;;;;;;;4.07;2.88;;;23.50;99.90;;;;;;6140458;23;20793;-75
2022/08/09 07:17:13;;;;;;;3.78;2.97;;;23.50;99.90;;;;;;6141157;23;20017;-73
2022/08/09 07:19:39;;;;;;;3.45;2.85;;;23.50;99.90;;;;;;6114022;23;20009;-74
2022/08/09 07:22:04;;;;;;;4.60;3.10;;;23.60;99.90;;;;;;6141535;23;20820;-74
2022/08/09 07:24:30;;;;;;;3.65;2.80;;;23.60;99.90;;;;;;6142645;23;20012;-74
2022/08/09 07:26:56;;;;;;;3.80;2.92;;;23.70;99.90;;;;;;6143074;23;20744;-79
2022/08/09 07:29:22;;;;;;;3.55;2.78;;;23.60;99.90;;;;;;6142872;23;20009;-79
2022/08/09 07:31:48;;;;;;;3.47;3.00;;;23.70;99.70;;;;;;6142321;23;20105;-79
2022/08/09 07:34:14;;;;;;;6.13;2.97;;;23.80;99.50;;;;;;6142267;23;20002;-79
2022/08/09 07:36:40;;;;;;;2.80;2.45;;;23.90;99.40;;;;;;6143675;23;20009;-79
2022/08/09 07:39:05;;;;;;;3.70;3.00;;;24.00;99.00;;;;;;6143914;23;20467;-79
2022/08/09 07:41:31;;;;;;;4.38;3.22;;;24.00;98.50;;;;;;6139939;23;20702;-79
2022/08/09 07:43:58;;;;;;;3.65;2.60;;;24.10;99.00;;;;;;6133652;23;20035;-79
2022/08/09 07:46:24;;;;;;;3.88;2.80;;;24.10;99.30;;;;;;6133546;23;20006;-79
2022/08/09 07:48:49;;;;;;;4.60;2.67;;;24.10;99.00;;;;;;6131883;23;20231;-79
2022/08/09 07:51:16;;;;;;;3.50;3.00;;;24.00;99.30;;;;;;6140831;23;20555;-79
2022/08/09 07:53:42;;;;;;;3.25;2.70;;;24.00;99.30;;;;;;6141429;23;20005;-80
2022/08/09 07:56:07;;;;;;;4.75;2.80;;;24.10;99.20;;;;;;6141515;23;20013;-80
2022/08/09 07:58:33;;;;;;;7.45;2.90;;;24.20;99.70;;;;;;6142271;23;20028;-80
2022/08/09 08:00:59;;;;;;;3.42;2.78;;;24.30;99.30;;;;;;6145426;23;20001;-80
2022/08/09 08:03:25;;;;;;;3.75;2.65;;;24.30;98.60;;;;;;6119596;23;20037;-79
2022/08/09 08:05:51;;;;;;;4.40;3.10;;;24.30;98.90;;;;;;6146052;23;20029;-79
2022/08/09 08:08:17;;;;;;;3.00;2.70;;;24.40;99.00;;;;;;6145109;23;20424;-79
2022/08/09 08:10:42;;;;;;;3.40;3.10;;;24.50;97.80;;;;;;6145335;23;20013;-81
2022/08/09 08:13:08;;;;;;;4.72;2.97;;;24.50;97.40;;;;;;6145037;23;20773;-80
2022/08/09 08:15:34;;;;;;;3.97;2.90;;;24.40;97.90;;;;;;6145242;23;20035;-80
2022/08/09 08:18:00;;;;;;;4.03;2.97;;;24.40;97.30;;;;;;6118436;23;20099;-80
2022/08/09 08:20:27;;;;;;;3.15;2.83;;;24.50;97.40;;;;;;6146329;23;20001;-77
2022/08/09 08:22:53;;;;;;;4.25;2.80;;;24.60;97.00;;;;;;6145531;23;20013;-78
2022/08/09 08:25:18;;;;;;;4.30;2.53;;;24.60;97.20;;;;;;6146761;23;20005;-79
2022/08/09 08:27:44;;;;;;;3.30;3.00;;;24.70;96.80;;;;;;6118106;23;20013;-81
2022/08/09 08:30:12;;;;;;;3.10;2.80;;;24.70;96.30;;;;;;6146132;23;20329;-80
2022/08/09 08:32:38;;;;;;;4.70;2.80;;;24.80;96.90;;;;;;6146750;23;20017;-80
2022/08/09 08:35:05;;;;;;;3.95;3.00;;;24.80;96.70;;;;;;6146059;23;19997;-80
2022/08/09 08:37:30;;;;;;;4.38;3.03;;;24.90;96.30;;;;;;6148244;23;20032;-80
2022/08/09 08:39:56;;;;;;;3.33;3.03;;;24.90;95.80;;;;;;6146654;23;19998;-79
2022/08/09 08:42:22;;;;;;;5.30;3.17;;;24.90;96.00;;;;;;6146516;23;20077;-79
2022/08/09 08:44:55;;;;;;;2.97;2.78;;;24.80;96.90;;;;;;6145785;23;20088;-80
2022/08/09 08:47:21;;;;;;;3.75;2.83;;;24.90;97.40;;;;;;6145067;23;20021;-80
2022/08/09 08:49:47;;;;;;;6.65;3.13;;;25.00;95.90;;;;;;6145122;23;20008;-81
2022/08/09 08:52:14;;;;;;;7.43;3.92;;;25.10;96.90;;;;;;6146764;23;20056;-80
2022/08/09 08:54:40;;;;;;;3.20;2.88;;;25.20;97.40;;;;;;6121204;23;20367;-80
2022/08/09 08:57:08;;;;;;;3.28;2.88;;;25.30;96.50;;;;;;6144363;23;20005;-80
2022/08/09 08:59:33;;;;;;;5.07;3.00;;;25.30;95.60;;;;;;6145375;23;20451;-78
2022/08/09 09:02:01;;;;;;;3.90;3.00;;;25.30;95.30;;;;;;6145672;23;20012;-80
2022/08/09 09:04:31;;;;;;;5.22;2.90;;;25.30;96.20;;;;;;6119576;23;20045;-80
2022/08/09 09:07:04;;;;;;;4.90;3.08;;;25.40;96.60;;;;;;6145936;23;20010;-79
2022/08/09 09:09:31;;;;;;;3.25;2.95;;;25.60;95.70;;;;;;6146769;23;20002;-80
2022/08/09 09:11:58;;;;;;;4.63;3.10;;;25.70;95.10;;;;;;6144902;23;20032;-80
2022/08/09 09:14:25;;;;;;;3.30;3.00;;;25.70;96.00;;;;;;6145689;23;20575;-79
2022/08/09 09:16:52;;;;;;;4.38;3.20;;;25.80;95.60;;;;;;6144792;23;20013;-73
2022/08/09 09:19:18;;;;;;;4.85;3.42;;;25.90;94.30;;;;;;6119536;23;20426;-73
2022/08/09 09:22:00;;;;;;;12.35;3.72;;;25.70;94.60;;;;;;6145625;23;20009;-73
2022/08/09 09:24:29;;;;;;;5.00;3.10;;;25.60;94.90;;;;;;6147372;23;20005;-72
2022/08/09 09:27:00;;;;;;;7.53;3.03;;;25.60;95.20;;;;;;6143988;23;20021;-73
2022/08/09 09:29:36;;;;;;;8.15;3.75;;;25.60;95.20;;;;;;6144282;23;20066;-72
2022/08/09 09:32:02;;;;;;;3.92;3.40;;;25.70;94.50;;;;;;6145520;23;20017;-73
2022/08/09 09:34:29;;;;;;;5.45;3.60;;;25.80;93.40;;;;;;6145466;23;20133;-72
2022/08/09 09:36:55;;;;;;;6.93;3.38;;;25.80;93.10;;;;;;6145490;23;20005;-73
2022/08/09 09:39:22;;;;;;;3.60;3.30;;;25.90;93.70;;;;;;6145680;23;20085;-71
2022/08/09 09:41:49;;;;;;;4.57;3.42;;;26.00;93.40;;;;;;6145219;23;20009;-72
2022/08/09 09:44:24;;;;;;;3.35;3.05;;;26.00;93.40;;;;;;6145025;23;20001;-72
2022/08/09 09:46:55;;;;;;;3.58;3.22;;;26.00;93.10;;;;;;6145513;23;20020;-72
2022/08/09 09:49:22;;;;;;;7.10;3.65;;;26.20;94.10;;;;;;6145223;23;20001;-72
2022/08/09 09:51:48;;;;;;;15.15;4.30;;;26.30;93.50;;;;;;6144438;23;20112;-72
2022/08/09 09:54:21;;;;;;;4.70;3.38;;;26.40;93.80;;;;;;6145321;23;20439;-72
2022/08/09 09:56:49;;;;;;;5.40;3.35;;;26.50;93.70;;;;;;6144752;23;20001;-72
2022/08/09 09:59:21;;;;;;;6.43;3.05;;;26.60;92.10;;;;;;6144000;23;20072;-73
2022/08/09 10:01:58;;;;;;;5.35;2.97;;;26.50;91.90;;;;;;6144230;23;20005;-72
2022/08/09 10:04:24;;;;;;;9.30;2.97;;;26.60;92.90;;;;;;6119899;23;20414;-73
2022/08/09 10:06:50;;;;;;;4.00;3.10;;;26.60;92.00;;;;;;6118499;23;20017;-76
2022/08/09 10:09:15;;;;;;;15.27;3.28;;;26.70;92.30;;;;;;6144488;23;19998;-76
2022/08/09 10:11:41;;;;;;;6.03;3.10;;;26.70;92.20;;;;;;6143523;23;20467;-75
2022/08/09 10:14:28;;;;;;;4.00;3.10;;;26.80;90.50;;;;;;6142634;23;20347;-77
2022/08/09 10:16:54;;;;;;;7.85;2.80;;;26.70;90.10;;;;;;6145006;23;20005;-77
2022/08/09 10:19:20;;;;;;;7.72;3.35;;;26.70;90.80;;;;;;6144971;23;20001;-76
2022/08/09 10:21:48;;;;;;;3.47;2.80;;;26.80;90.90;;;;;;6144747;23;20687;-77
2022/08/09 10:24:18;;;;;;;4.85;3.08;;;26.80;91.20;;;;;;6144402;23;20006;-77
2022/08/09 10:26:47;;;;;;;5.20;3.13;;;26.90;91.30;;;;;;6144831;23;20084;-76
2022/08/09 10:29:13;;;;;;;13.73;3.50;;;26.90;90.00;;;;;;6143353;23;20325;-78
2022/08/09 10:31:39;;;;;;;4.63;2.80;;;26.90;90.30;;;;;;6141811;23;20016;-75
2022/08/09 10:34:06;;;;;;;3.10;2.45;;;27.00;91.10;;;;;;6142556;23;20016;-74
2022/08/09 10:36:32;;;;;;;4.22;2.75;;;27.10;90.70;;;;;;6142209;23;20072;-75
2022/08/09 10:38:57;;;;;;;6.90;2.72;;;27.10;90.00;;;;;;6143314;23;20017;-76
2022/08/09 10:41:23;;;;;;;3.55;2.90;;;27.10;90.50;;;;;;6144439;23;20001;-82
2022/08/09 10:43:50;;;;;;;6.57;3.15;;;27.10;86.80;;;;;;6144665;23;20071;-74
2022/08/09 10:46:21;;;;;;;3.92;2.45;;;27.00;87.80;;;;;;6142646;23;20017;-76
2022/08/09 10:48:57;;;;;;;4.43;2.72;;;26.90;90.40;;;;;;6145984;23;20188;-76
2022/08/09 10:51:28;;;;;;;3.25;2.50;;;27.00;86.30;;;;;;6143720;23;20002;-72
2022/08/09 10:54:06;;;;;;;5.20;2.95;;;27.10;87.20;;;;;;6145330;23;20002;-72
2022/08/09 10:56:34;;;;;;;3.03;2.58;;;27.10;86.70;;;;;;6119985;23;20013;-73
2022/08/09 10:59:20;;;;;;;3.30;2.13;;;27.20;87.10;;;;;;6144624;23;20084;-73
2022/08/09 11:01:46;;;;;;;3.17;2.88;;;27.20;85.70;;;;;;6143583;23;20008;-72
2022/08/09 11:04:13;;;;;;;5.10;2.75;;;27.30;88.10;;;;;;6146106;23;20009;-72
2022/08/09 11:06:41;;;;;;;3.58;2.30;;;27.40;87.30;;;;;;6145838;23;20017;-73
2022/08/09 11:09:08;;;;;;;4.35;2.60;;;27.50;86.30;;;;;;6146908;23;20002;-72
2022/08/09 11:12:06;;;;;;;4.20;2.80;;;27.60;86.10;;;;;;6145142;23;20833;-72
2022/08/09 11:14:36;;;;;;;5.53;2.53;;;27.60;85.30;;;;;;6127774;23;20016;-73
2022/08/09 11:17:12;;;;;;;2.80;2.25;;;27.80;87.10;;;;;;6143243;23;20036;-72
2022/08/09 11:19:53;;;;;;;7.35;2.80;;;27.80;84.60;;;;;;6145011;23;20073;-72
2022/08/09 11:22:45;;;;;;;4.13;2.43;;;27.90;86.60;;;;;;6145122;23;20005;-72
2022/08/09 11:25:15;;;;;;;4.35;3.00;;;27.90;82.00;;;;;;6146286;23;20235;-72
2022/08/09 11:27:50;;;;;;;8.07;2.55;;;27.90;83.50;;;;;;6144441;23;20041;-72
2022/08/09 11:30:35;;;;;;;5.70;2.85;;;27.90;82.50;;;;;;6145881;23;20005;-72
2022/08/09 11:33:15;;;;;;;5.55;2.67;;;27.90;83.10;;;;;;6144008;23;20482;-72
2022/08/09 11:35:44;;;;;;;7.40;3.15;;;27.90;81.60;;;;;;6122188;23;20061;-73
2022/08/09 11:38:29;;;;;;;2.97;2.63;;;28.00;81.70;;;;;;6147523;23;20018;-74
2022/08/09 11:40:55;;;;;;;2.60;2.08;;;28.00;80.40;;;;;;6148012;23;20012;-72
2022/08/09 11:43:26;;;;;;;2.70;2.47;;;27.90;80.60;;;;;;6145735;23;20404;-72
2022/08/09 11:45:58;;;;;;;3.65;2.60;;;27.90;80.60;;;;;;6148243;23;20009;-73
2022/08/09 11:48:29;;;;;;;7.10;2.40;;;27.90;77.90;;;;;;6146146;23;20017;-72
2022/08/09 11:50:57;;;;;;;4.68;2.83;;;27.90;79.50;;;;;;6147533;23;20328;-72
2022/08/09 11:53:24;;;;;;;2.60;2.40;;;28.00;78.10;;;;;;6146764;23;20080;-74
2022/08/09 11:56:19;;;;;;;3.47;2.55;;;28.00;79.60;;;;;;6145226;23;20016;-72
2022/08/09 11:58:46;;;;;;;4.75;2.13;;;27.90;81.50;;;;;;6146097;23;20025;-73
2022/08/09 12:01:17;;;;;;;7.38;2.53;;;28.00;79.50;;;;;;6144744;23;20040;-71
2022/08/09 12:03:45;;;;;;;4.00;2.60;;;28.10;79.50;;;;;;6146310;23;19998;-73
2022/08/09 12:06:21;;;;;;;3.85;2.47;;;28.20;77.30;;;;;;6145309;23;20545;-71
2022/08/09 12:08:53;;;;;;;6.53;2.50;;;28.30;77.80;;;;;;6146555;23;20013;-72
2022/08/09 12:11:21;;;;;;;4.32;2.33;;;28.50;80.60;;;;;;6146832;23;20028;-72
2022/08/09 12:13:52;;;;;;;4.07;2.35;;;28.50;78.80;;;;;;6145670;23;20084;-71
2022/08/09 12:16:28;;;;;;;3.03;2.70;;;28.40;76.10;;;;;;6120481;23;20044;-72
2022/08/09 12:18:54;;;;;;;4.80;2.30;;;28.30;75.80;;;;;;6146299;23;20502;-72
2022/08/09 12:21:34;;;;;;;2.92;2.30;;;28.10;74.60;;;;;;6147585;23;20052;-72
2022/08/09 12:24:03;;;;;;;2.65;2.20;;;28.00;75.10;;;;;;6145266;23;20005;-74
2022/08/09 12:26:58;;;;;;;4.25;2.38;;;27.90;76.10;;;;;;6146599;23;20336;-73
2022/08/09 12:29:27;;;;;;;7.13;2.50;;;27.80;77.10;;;;;;6126319;23;20635;-72
2022/08/09 12:32:09;;;;;;;2.80;2.50;;;27.70;78.90;;;;;;6146478;23;20005;-74
2022/08/09 12:34:40;;;;;;;2.63;2.38;;;27.70;78.10;;;;;;6145178;23;20076;-73
2022/08/09 12:37:06;;;;;;;3.08;2.40;;;27.70;79.10;;;;;;6143523;23;20005;-73
2022/08/09 12:39:32;;;;;;;3.55;2.58;;;27.70;79.10;;;;;;6144276;23;20009;-72
2022/08/09 12:42:09;;;;;;;5.78;2.63;;;27.70;79.80;;;;;;6144572;23;20036;-72
2022/08/09 12:44:39;;;;;;;2.78;2.47;;;27.70;79.70;;;;;;6145540;23;20090;-72
2022/08/09 12:47:06;;;;;;;3.00;2.50;;;27.70;81.50;;;;;;6145993;23;20009;-73
2022/08/09 12:49:36;;;;;;;4.25;2.55;;;27.70;81.30;;;;;;6145974;23;20010;-73
2022/08/09 12:52:02;;;;;;;2.83;2.50;;;27.70;78.80;;;;;;6121050;23;20017;-72